Language selection

My Weather Profile Weather Topics  | 

East Foxe: Past 24 Hour Conditions

 

Moosonee Airport

08:00 PM EST 05 February 2023
Disclaimer

This table is a summary of hourly weather conditions for the past 24 hours.
Please note that these observations might not always be representative of weather conditions over their associated marine area.

Date / Time
(EST)
Wind(knots) Conditions Visibility(km) Pressure(kPa) Air tempC) Relative humidity(%) Dew pointC) Wind Chill
05 February 2023
20:00 W 3 Clear 16 102.1 -25 82 -27 -30
19:00 WNW 4 Clear 16 102.0 -23 81 -25 -30
18:00 NNW 4 Clear 16 101.9 -21 77 -24 -28
17:00 N 3 Mostly Cloudy 16 101.8 -19 71 -23 -23
16:00 NNE 5 Mostly Cloudy 16 101.7 -18 68 -22 -24
15:00 NW 4 Cloudy 16 101.6 -17 69 -22 -23
14:00 NNW 4 Mostly Cloudy 16 101.6 -17 69 -21 -23
13:00 NW 5 Mainly Sunny 16 101.6 -18 70 -22 -24
12:00 N 7 Cloudy 16 101.5 -19 73 -22 -27
11:00 N 4 Cloudy 16 101.5 -19 76 -22 -25
10:00 W 4 Cloudy 16 101.5 -22 79 -25 -29
9:00 W 4 Cloudy 16 101.4 -23 79 -25 -29
8:00 W 3 Cloudy 16 101.4 -23 78 -26 -28
7:00 WNW 7 Cloudy 16 101.3 -24 78 -27 -33
6:00 W 7 Light Snow 16 101.3 -24 78 -27 -33
5:00 W 6 Cloudy 16 101.2 -25 78 -28 -34
4:00 WSW 7 Clear 16 101.2 -25 80 -28 -34
3:00 W 6 Clear 16 101.1 -25 78 -28 -33
2:00 W 5 Clear 16 101.1 -24 81 -26 -31
1:00 W 6 Clear 16 101.0 -23 81 -26 -32
0:00 W 5 Clear 16 101.0 -22 82 -24 -29
04 February 2023
23:00 WNW 6 Clear 16 101.0 -20 80 -23 -28
22:00 W 7 Clear 16 100.9 -18 80 -21 -26
21:00 WNW 12 gust 17 Light Snow 6 100.8 -15 78 -18 -25
20:00 NW 12 gust 18 Light Snow 5 100.7 -14 79 -16 -23

Zoom-in to make a selection

Map of Hudson - Hudson Bay marine weather areas Arviat Airport Baker Lake Airport Chesterfield Inlet Airport Coral Harbour Airport Rankin Inlet Airport Sanikiluaq Airport Whale Cove Airport Kinngait (Cape Dorset Airport) Iqaluit Airport Wager Bay Kimmirut Airport Churchill Airport Fort Severn Airport Peawanuck Airport Moosonee Airport Eastmain Airport La Grande Rivière Airport Waskaganish Airport Wemindji Airport Akulivik Airport Inukjuak Airport Ivujivik Airport Kuujjuarapik Airport Puvirnituq Airport Umiujaq Airport Aupaluk Airport Kangiqsujuaq Airport Kangirsuk Airport Kangiqsualujjuaq Airport Kuujjuaq Airport Quaqtaq Airport Salluit Airport Tasiujaq Airport Cape Kakkiviak
Legend:
buoy Buoy
land station Land Station

Hudson - Hudson Bay Area

Another Region

What we are doing

Date modified: